Time;durP1;ratioP1;P1;durP2;ratioP2;P2;SDS_P1;SDS_P2;PMS_P1;PMS_P2;Temp;Humidity;BMP_temperature;BMP_pressure;BME280_temperature;BME280_humidity;BME280_pressure;Samples;Min_cycle;Max_cycle;Signal;HPM_P1;HPM_P2
2022/01/24 00:01:04;;;;;;;20.50;14.37;;;6.90;29.00;;;;;;5150616;27;20607;-81
2022/01/24 00:03:34;;;;;;;19.03;13.97;;;6.50;29.70;;;;;;5144987;27;20230;-86
2022/01/24 00:06:09;;;;;;;20.40;14.13;;;6.20;34.40;;;;;;5154338;27;20163;-82
2022/01/24 00:08:35;;;;;;;19.47;14.37;;;6.10;39.50;;;;;;5158088;27;20186;-83
2022/01/24 00:11:06;;;;;;;21.63;15.53;;;6.30;44.20;;;;;;5159261;27;20181;-80
2022/01/24 00:16:33;;;;;;;21.77;16.33;;;6.40;41.30;;;;;;5138970;27;20158;-81
2022/01/24 00:27:00;;;;;;;20.57;15.17;;;6.50;32.30;;;;;;5140291;27;20180;-85
2022/01/24 00:29:27;;;;;;;22.43;15.23;;;6.50;36.00;;;;;;5138182;27;20162;-80
2022/01/24 00:31:54;;;;;;;22.10;15.57;;;6.50;36.40;;;;;;5136035;27;20178;-80
2022/01/24 00:34:23;;;;;;;21.67;15.53;;;6.50;37.70;;;;;;5144881;27;20181;-82
2022/01/24 00:36:49;;;;;;;21.10;15.90;;;6.80;34.60;;;;;;5124422;27;20173;-84
2022/01/24 00:39:15;;;;;;;21.00;15.37;;;6.70;31.60;;;;;;5168603;27;20169;-83
2022/01/24 00:47:04;;;;;;;22.50;15.53;;;6.50;38.60;;;;;;5164279;27;20156;-79
2022/01/24 00:49:50;;;;;;;19.67;14.57;;;6.50;37.90;;;;;;5158583;27;20158;-82
2022/01/24 00:55:02;;;;;;;21.93;15.23;;;6.50;36.30;;;;;;5158211;27;20200;-80
2022/01/24 00:57:28;;;;;;;18.17;13.53;;;6.60;36.90;;;;;;5201250;27;20161;-79
2022/01/24 00:59:54;;;;;;;19.67;14.30;;;6.70;33.50;;;;;;5191381;27;20189;-80
2022/01/24 01:02:20;;;;;;;17.33;13.60;;;6.80;30.80;;;;;;5180784;27;20167;-82
2022/01/24 01:07:23;;;;;;;19.20;14.07;;;6.60;34.90;;;;;;5167832;27;20161;-84
2022/01/24 01:20:48;;;;;;;16.50;13.40;;;6.80;26.90;;;;;;5156171;27;20203;-83
2022/01/24 01:23:14;;;;;;;17.50;12.93;;;6.70;29.60;;;;;;5137854;27;20212;-85
2022/01/24 01:25:41;;;;;;;16.47;12.50;;;6.90;26.10;;;;;;5156784;27;20201;-84
2022/01/24 01:28:07;;;;;;;17.87;12.97;;;7.00;23.70;;;;;;5156239;27;20185;-84
2022/01/24 01:30:40;;;;;;;16.67;12.23;;;7.10;22.50;;;;;;5158643;27;20236;-83
2022/01/24 01:33:18;;;;;;;16.20;12.43;;;7.10;22.90;;;;;;5174906;27;20242;-80
2022/01/24 01:38:49;;;;;;;17.20;12.73;;;7.00;23.50;;;;;;5176915;27;20176;-79
2022/01/24 01:55:38;;;;;;;17.40;12.73;;;5.90;45.70;;;;;;5169917;27;20165;-79
2022/01/24 01:58:10;;;;;;;18.43;13.57;;;6.10;45.20;;;;;;5155856;27;20198;-83
2022/01/24 02:00:42;;;;;;;17.80;12.80;;;6.30;41.80;;;;;;5161046;27;20182;-84
2022/01/24 02:03:08;;;;;;;16.73;12.83;;;6.50;38.40;;;;;;5160252;27;20154;-84
2022/01/24 02:05:36;;;;;;;19.20;14.13;;;6.60;32.80;;;;;;5139898;27;20323;-81
2022/01/24 02:08:03;;;;;;;17.70;12.97;;;6.80;30.10;;;;;;5168514;27;20177;-80
2022/01/24 02:10:33;;;;;;;17.27;13.77;;;6.80;27.80;;;;;;5157531;27;20628;-78
2022/01/24 02:12:58;;;;;;;17.90;13.10;;;6.70;28.20;;;;;;5158098;27;20201;-78
2022/01/24 02:15:35;;;;;;;18.40;13.90;;;6.50;28.90;;;;;;5176414;27;20251;-80
2022/01/24 02:23:37;;;;;;;18.40;14.07;;;6.00;44.80;;;;;;5177245;27;20169;-78
2022/01/24 02:26:05;;;;;;;18.17;13.70;;;5.90;48.40;;;;;;5161596;27;20194;-79
2022/01/24 02:34:58;;;;;;;18.93;14.07;;;6.20;46.40;;;;;;5118540;22;20225;-87
2022/01/24 02:37:25;;;;;;;20.33;15.10;;;6.30;44.60;;;;;;5116649;28;20175;-87
2022/01/24 02:40:25;;;;;;;18.97;14.73;;;6.50;41.70;;;;;;5116671;28;20178;-88
2022/01/24 02:48:28;;;;;;;18.03;13.27;;;6.30;41.90;;;;;;5117520;28;20169;-88
2022/01/24 02:51:25;;;;;;;19.70;14.23;;;6.40;41.40;;;;;;5117491;28;20245;-87
2022/01/24 02:53:50;;;;;;;19.30;14.43;;;6.50;40.30;;;;;;5119991;28;20213;-88
2022/01/24 02:56:16;;;;;;;18.53;14.10;;;6.60;36.80;;;;;;5121209;28;20162;-87
2022/01/24 02:58:42;;;;;;;16.90;13.53;;;6.60;36.40;;;;;;5123505;28;20174;-88
2022/01/24 03:01:08;;;;;;;19.43;14.13;;;6.60;35.70;;;;;;5105441;28;20227;-87
2022/01/24 03:03:34;;;;;;;19.00;14.27;;;6.50;35.60;;;;;;5123946;28;20177;-87
2022/01/24 03:06:01;;;;;;;18.87;14.43;;;6.40;35.70;;;;;;5133678;27;20208;-83
2022/01/24 03:08:30;;;;;;;16.70;13.30;;;6.40;36.80;;;;;;5133264;28;20174;-87
2022/01/24 03:10:57;;;;;;;16.10;12.73;;;6.40;35.60;;;;;;5105610;28;20209;-87
2022/01/24 03:15:56;;;;;;;16.50;12.77;;;6.60;31.40;;;;;;5136856;28;20196;-86
2022/01/24 03:18:23;;;;;;;18.27;14.97;;;6.40;34.90;;;;;;5119560;28;20170;-87
2022/01/24 03:20:50;;;;;;;20.70;14.73;;;6.40;37.70;;;;;;5120862;28;20185;-87
2022/01/24 03:23:17;;;;;;;18.73;13.33;;;6.50;36.00;;;;;;5136841;28;20167;-87
2022/01/24 03:25:43;;;;;;;17.53;13.60;;;6.30;34.20;;;;;;5113256;28;20170;-88
2022/01/24 03:28:10;;;;;;;17.63;13.37;;;6.40;35.20;;;;;;5115818;27;20185;-89
2022/01/24 03:30:37;;;;;;;16.47;12.77;;;6.50;34.00;;;;;;5123514;27;20179;-87
2022/01/24 03:33:04;;;;;;;19.63;14.03;;;6.70;31.20;;;;;;5141546;27;20212;-88
2022/01/24 03:35:31;;;;;;;18.10;14.03;;;6.80;28.80;;;;;;5125147;27;20293;-87
2022/01/24 03:37:57;;;;;;;20.80;14.93;;;6.80;27.10;;;;;;5121873;27;20174;-86
2022/01/24 03:40:23;;;;;;;18.77;14.07;;;6.50;29.60;;;;;;5122677;27;20182;-89
2022/01/24 03:42:49;;;;;;;19.40;14.70;;;6.40;34.20;;;;;;5142851;27;20218;-87
2022/01/24 03:45:16;;;;;;;20.43;15.37;;;6.50;33.90;;;;;;5116151;28;20167;-89
2022/01/24 03:47:55;;;;;;;19.77;15.20;;;6.60;32.40;;;;;;5102655;28;20182;-87
2022/01/24 03:50:21;;;;;;;20.63;14.60;;;6.60;32.40;;;;;;5103078;28;20200;-87
2022/01/24 03:52:49;;;;;;;20.43;15.13;;;6.70;29.20;;;;;;5101471;28;20210;-88
2022/01/24 03:55:15;;;;;;;21.67;16.20;;;6.70;23.40;;;;;;5101627;28;20189;-87
2022/01/24 03:57:41;;;;;;;20.80;15.97;;;6.70;25.20;;;;;;5102100;28;20708;-87
2022/01/24 04:00:08;;;;;;;22.63;16.73;;;6.60;29.40;;;;;;5103387;27;20177;-88
2022/01/24 04:02:35;;;;;;;20.37;14.43;;;6.40;33.70;;;;;;5123398;27;20175;-87
2022/01/24 04:05:00;;;;;;;22.97;16.33;;;6.40;26.20;;;;;;5126225;28;20175;-86
2022/01/24 04:07:26;;;;;;;23.77;16.20;;;6.30;29.90;;;;;;5120455;28;20166;-86
2022/01/24 04:09:52;;;;;;;24.30;16.50;;;6.20;35.50;;;;;;5120564;27;20159;-86
2022/01/24 04:12:21;;;;;;;22.90;16.20;;;6.20;38.50;;;;;;5124000;28;20217;-86
2022/01/24 04:22:45;;;;;;;22.50;15.67;;;6.50;37.00;;;;;;5141833;27;20170;-88
2022/01/24 04:25:14;;;;;;;23.60;16.30;;;6.50;36.50;;;;;;5122888;27;20162;-89
2022/01/24 04:27:41;;;;;;;22.67;16.13;;;6.50;31.10;;;;;;5122267;27;20178;-87
2022/01/24 04:30:09;;;;;;;22.67;16.10;;;6.60;28.80;;;;;;5124226;27;20173;-88
2022/01/24 04:32:37;;;;;;;22.90;16.57;;;6.60;28.20;;;;;;5137444;27;20210;-86
2022/01/24 04:35:03;;;;;;;23.43;17.30;;;6.70;28.80;;;;;;5135167;27;20286;-87
2022/01/24 04:37:31;;;;;;;23.50;15.83;;;6.70;29.30;;;;;;5118842;28;20166;-88
2022/01/24 04:39:57;;;;;;;21.63;15.13;;;6.70;29.40;;;;;;5126032;27;20180;-86
2022/01/24 04:42:33;;;;;;;22.83;15.80;;;6.50;28.50;;;;;;5134449;27;20170;-89
2022/01/24 04:45:26;;;;;;;19.17;14.50;;;6.60;29.90;;;;;;5131098;27;20298;-88
2022/01/24 04:51:00;;;;;;;22.40;15.17;;;6.60;28.10;;;;;;5161608;27;20165;-85
2022/01/24 04:56:13;;;;;;;21.30;15.53;;;6.30;32.50;;;;;;5099518;27;20209;-87
2022/01/24 04:58:39;;;;;;;19.50;15.23;;;6.40;34.60;;;;;;5123517;27;20182;-88
2022/01/24 05:01:11;;;;;;;21.47;15.37;;;6.60;31.40;;;;;;5141640;27;20174;-90
2022/01/24 05:03:38;;;;;;;21.60;15.30;;;6.70;27.10;;;;;;5124181;27;20202;-88
2022/01/24 05:06:04;;;;;;;23.23;16.27;;;6.80;26.20;;;;;;5143045;27;20162;-85
2022/01/24 05:08:33;;;;;;;22.13;15.90;;;6.80;25.20;;;;;;5144049;27;20170;-84
2022/01/24 05:11:08;;;;;;;25.77;16.93;;;7.00;24.50;;;;;;5143290;27;20174;-87
2022/01/24 05:24:35;;;;;;;22.63;16.30;;;6.70;27.60;;;;;;5139807;27;20174;-87
2022/01/24 05:27:01;;;;;;;25.43;16.23;;;6.70;27.00;;;;;;5123921;27;20174;-89
2022/01/24 05:29:27;;;;;;;22.03;15.33;;;6.60;27.10;;;;;;5125005;27;20166;-85
2022/01/24 05:31:54;;;;;;;22.13;15.83;;;6.60;27.70;;;;;;5122350;27;20231;-88
2022/01/24 05:34:19;;;;;;;21.13;15.70;;;6.50;29.40;;;;;;5141232;27;20241;-87
2022/01/24 05:36:47;;;;;;;22.63;15.53;;;6.30;33.80;;;;;;5120788;27;20656;-87
2022/01/24 05:39:13;;;;;;;22.10;15.97;;;6.30;38.60;;;;;;5119802;27;20174;-86
2022/01/24 05:41:39;;;;;;;24.60;15.87;;;6.20;38.50;;;;;;5121355;27;20169;-86
2022/01/24 05:44:09;;;;;;;21.00;14.97;;;6.30;39.50;;;;;;5120295;27;20166;-88
2022/01/24 05:46:35;;;;;;;22.40;15.43;;;6.50;35.20;;;;;;5123988;27;20226;-86
2022/01/24 05:49:02;;;;;;;21.03;16.10;;;6.60;32.40;;;;;;5136611;27;20191;-86
2022/01/24 05:51:29;;;;;;;21.33;15.80;;;6.80;29.60;;;;;;5143850;27;20177;-86
2022/01/24 05:53:56;;;;;;;27.30;17.90;;;6.80;26.90;;;;;;5120231;27;20296;-89
2022/01/24 05:56:22;;;;;;;24.70;17.97;;;6.60;28.60;;;;;;5139637;27;20201;-87
2022/01/24 05:58:47;;;;;;;25.23;18.47;;;6.50;32.40;;;;;;5132544;27;20163;-87
2022/01/24 06:01:13;;;;;;;27.17;18.10;;;6.30;33.50;;;;;;5126393;27;20255;-88
2022/01/24 06:03:39;;;;;;;23.73;16.47;;;6.20;37.30;;;;;;5119877;27;20648;-87
2022/01/24 06:06:07;;;;;;;22.80;16.07;;;6.00;39.70;;;;;;5120279;27;20227;-88
2022/01/24 06:08:33;;;;;;;23.27;16.60;;;5.80;46.40;;;;;;5118546;27;20171;-87
2022/01/24 06:10:59;;;;;;;24.27;16.83;;;5.70;49.00;;;;;;5120544;27;20174;-90
2022/01/24 06:13:27;;;;;;;27.77;17.60;;;5.60;51.60;;;;;;5120159;28;20270;-89
2022/01/24 06:15:54;;;;;;;25.00;17.63;;;5.60;52.60;;;;;;5119435;27;20174;-89
2022/01/24 06:18:25;;;;;;;24.63;16.73;;;5.70;53.80;;;;;;5120572;27;20232;-87
2022/01/24 06:20:52;;;;;;;26.03;17.57;;;5.60;54.70;;;;;;5119946;27;20173;-88
2022/01/24 06:23:20;;;;;;;24.40;16.57;;;5.60;54.60;;;;;;5118971;28;20260;-88
2022/01/24 06:25:45;;;;;;;25.53;17.50;;;5.70;56.30;;;;;;5119901;28;20182;-88
2022/01/24 06:28:12;;;;;;;25.03;17.83;;;5.60;54.60;;;;;;5119634;28;20182;-87
2022/01/24 06:30:38;;;;;;;23.77;16.23;;;5.80;55.00;;;;;;5128327;28;20171;-89
2022/01/24 06:33:04;;;;;;;26.83;17.33;;;5.80;54.10;;;;;;5132744;28;20214;-88
2022/01/24 06:35:30;;;;;;;27.47;19.13;;;5.80;53.00;;;;;;5106057;28;20241;-87
2022/01/24 06:37:56;;;;;;;24.23;17.27;;;5.80;52.50;;;;;;5121998;28;20200;-87
2022/01/24 06:40:21;;;;;;;26.53;17.93;;;5.90;51.50;;;;;;5128630;28;20200;-86
2022/01/24 06:42:47;;;;;;;24.43;17.40;;;6.00;51.20;;;;;;5137030;27;20185;-87
2022/01/24 06:45:13;;;;;;;26.80;17.80;;;6.00;50.40;;;;;;5132525;28;20194;-83
2022/01/24 06:47:41;;;;;;;25.77;16.70;;;6.00;50.10;;;;;;5113985;28;20230;-84
2022/01/24 06:50:10;;;;;;;25.47;16.97;;;6.10;49.50;;;;;;5103902;28;20233;-87
2022/01/24 06:52:41;;;;;;;26.73;18.33;;;6.00;50.90;;;;;;5118371;28;20545;-89
2022/01/24 06:55:09;;;;;;;26.03;18.70;;;6.10;49.80;;;;;;5116936;28;20167;-85
2022/01/24 06:57:34;;;;;;;26.80;17.57;;;6.10;50.70;;;;;;5098114;28;20202;-87
2022/01/24 07:00:03;;;;;;;24.60;16.43;;;6.20;51.80;;;;;;5087516;28;20183;-86
2022/01/24 07:02:30;;;;;;;25.63;17.83;;;6.30;49.30;;;;;;5106607;28;20262;-89
2022/01/24 07:04:56;;;;;;;27.20;18.23;;;6.10;49.80;;;;;;5101316;28;20178;-86
2022/01/24 07:07:21;;;;;;;25.33;17.00;;;6.20;51.10;;;;;;5084956;28;20261;-86
2022/01/24 07:09:47;;;;;;;25.07;16.63;;;6.10;47.90;;;;;;5101208;28;20167;-86
2022/01/24 07:12:13;;;;;;;25.73;16.50;;;6.10;48.90;;;;;;5086656;28;20203;-86
2022/01/24 07:14:41;;;;;;;24.27;16.37;;;6.30;47.90;;;;;;5099016;28;20225;-87
2022/01/24 07:19:37;;;;;;;23.03;16.67;;;6.30;48.50;;;;;;5099758;28;20186;-83
2022/01/24 07:22:05;;;;;;;27.13;18.00;;;6.40;46.40;;;;;;5094930;28;20179;-84
2022/01/24 07:24:32;;;;;;;23.47;16.23;;;6.30;44.40;;;;;;5087636;28;20186;-89
2022/01/24 07:26:59;;;;;;;23.47;16.07;;;6.30;43.90;;;;;;5110055;28;20200;-88
2022/01/24 07:29:26;;;;;;;24.87;17.60;;;6.30;45.10;;;;;;5116325;28;20172;-87
2022/01/24 07:31:52;;;;;;;23.60;16.50;;;6.30;44.70;;;;;;5084723;28;20186;-88
2022/01/24 07:34:18;;;;;;;24.10;17.03;;;6.40;45.00;;;;;;5109680;27;20265;-87
2022/01/24 07:36:44;;;;;;;23.77;16.50;;;6.40;46.40;;;;;;5132723;27;20151;-86
2022/01/24 07:39:11;;;;;;;24.73;17.60;;;6.50;42.50;;;;;;5123880;27;20261;-85
2022/01/24 07:41:46;;;;;;;23.53;17.13;;;6.70;39.50;;;;;;5132961;27;20249;-87
2022/01/24 07:44:13;;;;;;;22.97;16.47;;;6.60;38.90;;;;;;5144066;27;20158;-86
2022/01/24 07:46:42;;;;;;;24.30;17.20;;;6.70;37.10;;;;;;5107577;27;20258;-89
2022/01/24 07:49:11;;;;;;;23.50;16.73;;;6.70;36.40;;;;;;5123267;27;20178;-88
2022/01/24 07:51:38;;;;;;;23.80;16.77;;;6.60;36.90;;;;;;5107207;28;20174;-90
2022/01/24 07:54:04;;;;;;;23.43;16.77;;;6.30;38.40;;;;;;5104700;28;20203;-91
2022/01/24 07:56:30;;;;;;;21.90;16.07;;;6.30;42.70;;;;;;5103599;28;20202;-88
2022/01/24 07:58:58;;;;;;;25.50;16.77;;;6.50;39.90;;;;;;5104903;28;20529;-89
2022/01/24 08:01:24;;;;;;;22.43;16.13;;;6.50;39.20;;;;;;5120895;27;20216;-90
2022/01/24 08:03:51;;;;;;;25.57;17.40;;;6.60;35.50;;;;;;5123316;27;20221;-87
2022/01/24 08:06:18;;;;;;;22.03;15.87;;;6.50;35.30;;;;;;5123565;27;20181;-85
2022/01/24 08:08:45;;;;;;;23.47;15.90;;;6.60;35.10;;;;;;5123426;28;20170;-86
2022/01/24 08:11:18;;;;;;;23.30;16.93;;;6.60;35.80;;;;;;5108276;28;20178;-90
2022/01/24 08:17:06;;;;;;;21.37;15.03;;;6.40;37.40;;;;;;5126145;28;20177;-88
2022/01/24 08:19:33;;;;;;;26.70;18.23;;;6.10;40.30;;;;;;5106109;28;20253;-91
2022/01/24 08:21:59;;;;;;;27.90;16.90;;;6.00;44.10;;;;;;5103994;28;20175;-89
2022/01/24 08:24:24;;;;;;;24.50;17.77;;;6.00;47.30;;;;;;5103805;28;20174;-87
2022/01/24 08:26:50;;;;;;;23.00;16.07;;;6.10;47.60;;;;;;5103972;28;20337;-88
2022/01/24 08:29:16;;;;;;;24.37;16.40;;;6.20;46.70;;;;;;5072148;28;20171;-87
2022/01/24 08:31:42;;;;;;;24.50;17.60;;;6.40;44.60;;;;;;5104934;28;20174;-89
2022/01/24 08:34:09;;;;;;;23.60;17.00;;;6.60;41.30;;;;;;5090497;28;20302;-87
2022/01/24 08:36:35;;;;;;;23.13;17.13;;;6.60;38.00;;;;;;5108695;28;20182;-88
2022/01/24 08:39:07;;;;;;;23.73;17.27;;;6.60;37.50;;;;;;5104012;28;20177;-90
2022/01/24 08:44:18;;;;;;;23.27;17.03;;;6.90;31.90;;;;;;5121140;28;20270;-90
2022/01/24 08:46:46;;;;;;;24.67;15.70;;;7.00;29.10;;;;;;5103860;28;20238;-90
2022/01/24 08:49:12;;;;;;;21.53;16.27;;;7.00;27.80;;;;;;5113537;28;20212;-89
2022/01/24 08:51:37;;;;;;;23.63;16.67;;;6.90;26.40;;;;;;5117972;28;20192;-90
2022/01/24 08:54:05;;;;;;;25.43;17.87;;;7.10;29.00;;;;;;5112870;28;20256;-89
2022/01/24 08:56:31;;;;;;;24.40;17.83;;;7.00;26.40;;;;;;5109373;28;20175;-91
2022/01/24 08:58:57;;;;;;;23.83;16.53;;;7.10;27.60;;;;;;5110505;28;20320;-90
2022/01/24 09:01:22;;;;;;;24.00;16.67;;;7.20;25.90;;;;;;5127217;28;20178;-90
2022/01/24 09:03:48;;;;;;;24.03;18.27;;;7.20;23.20;;;;;;5129113;28;20175;-90
2022/01/24 09:06:17;;;;;;;27.90;18.30;;;7.40;22.20;;;;;;5107670;28;20175;-90
2022/01/24 09:08:45;;;;;;;24.53;16.83;;;7.30;20.80;;;;;;5112806;28;20163;-91
2022/01/24 09:11:11;;;;;;;23.70;16.73;;;7.40;18.60;;;;;;5111350;27;20235;-91
2022/01/24 09:13:37;;;;;;;23.40;16.43;;;7.40;18.00;;;;;;5106567;28;20216;-88
2022/01/24 09:16:04;;;;;;;24.60;16.97;;;7.50;17.30;;;;;;5110896;28;20190;-91
2022/01/24 09:21:59;;;;;;;24.43;16.60;;;7.70;15.40;;;;;;5033660;28;20188;-88
2022/01/24 09:24:25;;;;;;;26.70;18.13;;;7.80;12.10;;;;;;5054946;28;20179;-89
2022/01/24 09:26:51;;;;;;;25.63;17.10;;;7.80;9.60;;;;;;5105829;28;20548;-91
2022/01/24 09:29:16;;;;;;;23.53;17.83;;;7.90;8.10;;;;;;5107298;28;20588;-90
2022/01/24 09:31:42;;;;;;;27.83;18.10;;;7.90;7.40;;;;;;5107848;28;20167;-92
2022/01/24 09:34:08;;;;;;;38.50;18.50;;;7.90;7.70;;;;;;5085449;28;20214;-88
2022/01/24 09:36:35;;;;;;;27.33;17.50;;;7.60;6.80;;;;;;5104734;28;20167;-88
2022/01/24 09:39:04;;;;;;;26.70;17.57;;;7.80;7.50;;;;;;5093679;28;20175;-91
2022/01/24 09:41:32;;;;;;;28.20;17.17;;;7.70;8.10;;;;;;5106737;27;20182;-90
2022/01/24 09:43:58;;;;;;;26.47;17.03;;;7.70;9.20;;;;;;5131213;27;20166;-87
2022/01/24 09:46:24;;;;;;;25.20;18.17;;;7.70;10.20;;;;;;5126429;27;20257;-88
2022/01/24 09:48:56;;;;;;;23.13;16.80;;;7.80;5.60;;;;;;5149392;27;20289;-86
2022/01/24 09:51:23;;;;;;;23.80;16.57;;;7.90;4.60;;;;;;5136932;27;20215;-91
2022/01/24 09:53:49;;;;;;;22.43;16.00;;;7.90;4.50;;;;;;5121152;27;20229;-92
2022/01/24 09:56:17;;;;;;;22.97;16.53;;;7.40;5.70;;;;;;5140061;27;20178;-86
2022/01/24 09:58:43;;;;;;;22.93;15.80;;;7.10;16.20;;;;;;5121883;27;20245;-88
2022/01/24 10:01:13;;;;;;;22.27;16.03;;;6.80;24.50;;;;;;5125072;27;20174;-89
2022/01/24 10:03:39;;;;;;;23.67;16.40;;;6.70;26.50;;;;;;5126953;27;20801;-90
2022/01/24 10:06:05;;;;;;;24.27;16.27;;;6.60;29.80;;;;;;5123190;27;20174;-87
2022/01/24 10:08:32;;;;;;;22.73;16.17;;;6.50;33.90;;;;;;5125016;27;20688;-91
2022/01/24 10:11:06;;;;;;;25.40;17.27;;;6.60;32.90;;;;;;5125150;28;20181;-88
2022/01/24 10:19:07;;;;;;;24.50;17.47;;;6.60;34.70;;;;;;5141223;27;20191;-89
2022/01/24 10:21:51;;;;;;;27.27;17.40;;;6.60;32.80;;;;;;5120830;27;20199;-92
2022/01/24 10:24:37;;;;;;;22.27;16.40;;;6.70;32.70;;;;;;5122747;28;20162;-89
2022/01/24 10:27:16;;;;;;;27.57;18.43;;;6.60;32.40;;;;;;5123246;28;20177;-88
2022/01/24 10:30:08;;;;;;;28.40;18.60;;;6.60;35.80;;;;;;5142493;28;20158;-89
2022/01/24 10:32:46;;;;;;;26.13;16.03;;;6.70;32.40;;;;;;5109422;28;20335;-94
2022/01/24 10:35:45;;;;;;;24.10;17.07;;;6.70;30.50;;;;;;5138679;28;20212;-89
2022/01/24 10:38:44;;;;;;;24.17;16.67;;;6.60;32.40;;;;;;5139783;28;20171;-88
2022/01/24 10:41:20;;;;;;;24.43;16.80;;;6.60;32.30;;;;;;5144205;27;20188;-87
2022/01/24 10:43:49;;;;;;;24.50;17.03;;;6.70;33.00;;;;;;5128212;27;20173;-90
2022/01/24 10:46:39;;;;;;;26.43;16.83;;;7.00;29.80;;;;;;5129126;27;20182;-93
2022/01/24 10:49:09;;;;;;;25.43;16.87;;;7.10;24.90;;;;;;5144000;27;20174;-91
2022/01/24 10:51:44;;;;;;;25.80;18.23;;;6.90;22.80;;;;;;5162372;27;20155;-83
2022/01/24 10:54:14;;;;;;;25.00;17.23;;;7.10;24.80;;;;;;5144564;27;20205;-86
2022/01/24 10:56:45;;;;;;;25.20;17.77;;;7.10;20.70;;;;;;5127217;27;20645;-87
2022/01/24 10:59:24;;;;;;;24.00;15.80;;;7.20;20.00;;;;;;5126400;27;20189;-91
2022/01/24 11:01:55;;;;;;;23.20;15.97;;;7.00;18.30;;;;;;5125771;27;20177;-87
2022/01/24 11:04:29;;;;;;;23.77;16.67;;;6.80;21.90;;;;;;5127702;27;20177;-93
2022/01/24 11:06:57;;;;;;;23.70;17.30;;;6.90;25.30;;;;;;5111613;27;20196;-88
2022/01/24 11:09:26;;;;;;;25.53;17.10;;;7.00;25.40;;;;;;5139159;27;20162;-86
2022/01/24 11:12:01;;;;;;;22.73;16.20;;;7.10;24.70;;;;;;5143315;27;20205;-87
2022/01/24 11:14:40;;;;;;;22.60;16.17;;;7.10;19.30;;;;;;5144259;27;20196;-85
2022/01/24 11:17:36;;;;;;;21.47;15.97;;;7.10;17.90;;;;;;5133597;27;20257;-92
2022/01/24 11:20:23;;;;;;;23.27;15.57;;;7.00;19.60;;;;;;5146117;27;20159;-92
2022/01/24 11:22:59;;;;;;;25.43;16.83;;;7.00;18.90;;;;;;5109992;27;20174;-91
2022/01/24 11:25:26;;;;;;;24.40;17.00;;;6.90;21.60;;;;;;5128527;27;20277;-90
2022/01/24 11:27:53;;;;;;;22.60;15.93;;;7.00;24.60;;;;;;5133917;27;20186;-92
2022/01/24 11:30:43;;;;;;;25.30;16.43;;;7.10;20.60;;;;;;5129930;27;20174;-90
2022/01/24 11:33:12;;;;;;;23.67;16.80;;;7.20;18.90;;;;;;5127005;27;20222;-86
2022/01/24 11:35:54;;;;;;;23.20;17.43;;;7.40;17.20;;;;;;5155193;27;20193;-89
2022/01/24 11:38:38;;;;;;;23.33;17.47;;;7.40;16.70;;;;;;5123878;27;20196;-89
2022/01/24 11:41:20;;;;;;;21.63;16.23;;;7.50;14.50;;;;;;5115835;28;20177;-87
2022/01/24 11:43:59;;;;;;;25.60;19.13;;;7.80;13.50;;;;;;5102429;28;20175;-88
2022/01/24 11:46:41;;;;;;;22.40;16.87;;;8.10;9.90;;;;;;5102421;28;20170;-88
2022/01/24 11:49:10;;;;;;;25.93;17.50;;;8.00;1.00;;;;;;5119886;27;20194;-88
2022/01/24 11:51:39;;;;;;;22.67;16.17;;;8.00;4.20;;;;;;5109174;28;20171;-93
2022/01/24 11:54:32;;;;;;;24.20;16.00;;;7.60;7.50;;;;;;5113223;27;20301;-90
2022/01/24 11:57:19;;;;;;;23.87;15.93;;;7.60;7.70;;;;;;5112096;27;20624;-92
2022/01/24 11:59:46;;;;;;;25.53;17.27;;;7.60;8.90;;;;;;5116849;28;20212;-89
2022/01/24 12:02:18;;;;;;;27.27;16.57;;;7.60;9.10;;;;;;5092170;28;20193;-96
2022/01/24 12:05:13;;;;;;;24.77;17.17;;;7.60;9.10;;;;;;5090792;28;20183;-90
2022/01/24 12:07:44;;;;;;;21.57;15.17;;;7.60;9.10;;;;;;5106463;28;20234;-93
2022/01/24 12:10:23;;;;;;;25.40;16.30;;;7.50;11.50;;;;;;5104878;28;20281;-91
2022/01/24 12:13:03;;;;;;;24.10;16.87;;;7.50;10.90;;;;;;5104476;28;20226;-91
2022/01/24 12:15:39;;;;;;;23.17;16.67;;;7.70;8.70;;;;;;5118738;27;20666;-89
2022/01/24 12:18:29;;;;;;;25.27;18.23;;;7.90;6.50;;;;;;5104007;28;20177;-89
2022/01/24 12:21:03;;;;;;;24.97;16.73;;;7.90;1.40;;;;;;5104848;28;20183;-92
2022/01/24 12:23:44;;;;;;;27.50;17.13;;;8.10;1.50;;;;;;5106374;27;20169;-88
2022/01/24 12:26:13;;;;;;;26.43;17.43;;;8.10;1.00;;;;;;5122029;27;20185;-88
2022/01/24 12:28:41;;;;;;;24.23;16.23;;;8.00;1.00;;;;;;5124974;27;20190;-90
2022/01/24 12:31:21;;;;;;;21.90;16.63;;;7.90;1.00;;;;;;5123771;27;20201;-91
2022/01/24 12:34:11;;;;;;;22.83;15.53;;;7.70;5.10;;;;;;5142096;27;20214;-92
2022/01/24 12:36:50;;;;;;;22.87;14.80;;;7.90;5.70;;;;;;5107764;27;20198;-91
2022/01/24 12:39:15;;;;;;;21.33;15.50;;;7.90;1.00;;;;;;5124322;27;20170;-89
2022/01/24 12:41:48;;;;;;;23.70;16.87;;;7.90;1.40;;;;;;5111215;28;20179;-92
2022/01/24 12:47:08;;;;;;;24.40;16.60;;;7.80;5.50;;;;;;5122605;28;20202;-90
2022/01/24 12:49:35;;;;;;;24.40;16.67;;;7.70;6.40;;;;;;5111419;27;20214;-86
2022/01/24 12:52:06;;;;;;;24.97;17.23;;;7.60;11.30;;;;;;5121191;28;20194;-89
2022/01/24 12:54:36;;;;;;;24.83;16.47;;;7.80;10.60;;;;;;5132870;27;20171;-85
2022/01/24 12:57:08;;;;;;;26.00;17.17;;;8.00;3.30;;;;;;5083574;28;20156;-88
2022/01/24 12:59:38;;;;;;;22.10;14.80;;;8.00;2.70;;;;;;5092338;28;20176;-86
2022/01/24 13:02:08;;;;;;;24.93;16.33;;;8.00;3.00;;;;;;5090985;28;20221;-85
2022/01/24 13:04:39;;;;;;;24.47;17.07;;;7.80;4.40;;;;;;5094062;28;20286;-89
2022/01/24 13:07:09;;;;;;;23.97;15.70;;;7.80;8.90;;;;;;5086291;28;20168;-88
2022/01/24 13:09:38;;;;;;;24.27;16.27;;;7.80;5.60;;;;;;5084738;28;20271;-88
2022/01/24 13:12:21;;;;;;;26.23;16.97;;;7.80;7.20;;;;;;5083619;28;20163;-90
2022/01/24 13:14:57;;;;;;;26.20;15.37;;;7.90;8.40;;;;;;5082459;28;20174;-88
2022/01/24 13:22:59;;;;;;;27.73;16.40;;;7.80;7.90;;;;;;5101362;28;20170;-87
2022/01/24 13:25:27;;;;;;;24.83;16.30;;;7.90;10.50;;;;;;5088240;28;20175;-86
2022/01/24 13:27:57;;;;;;;23.93;16.77;;;7.70;11.10;;;;;;5091135;28;20184;-88
2022/01/24 13:30:31;;;;;;;24.10;15.33;;;7.80;10.70;;;;;;5089074;28;20190;-89
2022/01/24 13:32:59;;;;;;;26.80;16.10;;;7.80;7.30;;;;;;5083649;28;20267;-88
2022/01/24 13:35:38;;;;;;;33.50;17.90;;;7.80;9.30;;;;;;5081591;28;20178;-88
2022/01/24 13:38:09;;;;;;;25.90;15.63;;;7.80;12.20;;;;;;5081095;28;20183;-90
2022/01/24 13:41:11;;;;;;;26.97;17.27;;;7.70;11.20;;;;;;5107405;27;20170;-88
2022/01/24 13:43:48;;;;;;;26.70;17.23;;;7.60;13.20;;;;;;5121939;27;20396;-88
2022/01/24 13:46:18;;;;;;;22.87;15.73;;;7.60;14.90;;;;;;5105720;27;20582;-90
2022/01/24 13:48:56;;;;;;;23.90;15.27;;;7.70;12.40;;;;;;5109535;28;20260;-89
2022/01/24 13:51:38;;;;;;;25.57;15.30;;;7.80;12.00;;;;;;5111330;27;20154;-90
2022/01/24 13:54:08;;;;;;;21.37;15.33;;;7.80;13.30;;;;;;5104050;28;20191;-90
2022/01/24 13:56:41;;;;;;;26.10;16.50;;;7.80;12.20;;;;;;5110722;27;20183;-89
2022/01/24 13:59:12;;;;;;;26.47;15.53;;;7.90;10.70;;;;;;5110949;28;20548;-89
2022/01/24 14:01:56;;;;;;;24.17;16.10;;;7.80;9.80;;;;;;5127255;27;20196;-89
2022/01/24 14:04:36;;;;;;;27.53;16.00;;;7.70;11.80;;;;;;5130635;27;20198;-87
2022/01/24 14:07:11;;;;;;;23.53;15.53;;;7.90;10.60;;;;;;5127664;27;20265;-85
2022/01/24 14:09:46;;;;;;;23.00;15.63;;;8.00;6.80;;;;;;5123733;27;20174;-87
2022/01/24 14:12:16;;;;;;;24.60;15.30;;;8.00;6.60;;;;;;5140143;27;20172;-85
2022/01/24 14:14:49;;;;;;;25.53;15.63;;;7.90;9.40;;;;;;5124006;27;20166;-86
2022/01/24 14:17:45;;;;;;;27.17;17.50;;;8.00;7.30;;;;;;5131533;27;20218;-86
2022/01/24 14:20:17;;;;;;;22.00;15.17;;;8.00;6.20;;;;;;5140139;27;20164;-87
2022/01/24 14:23:03;;;;;;;23.47;16.10;;;8.00;6.30;;;;;;5122525;27;20166;-87
2022/01/24 14:26:18;;;;;;;24.37;15.47;;;8.00;5.30;;;;;;5121279;28;20295;-88
2022/01/24 14:28:45;;;;;;;25.43;16.20;;;8.00;5.60;;;;;;5122793;28;20227;-88
2022/01/24 14:31:14;;;;;;;23.07;15.30;;;8.00;4.00;;;;;;5122638;28;20167;-88
2022/01/24 14:33:42;;;;;;;23.67;15.20;;;7.90;7.10;;;;;;5131981;27;20277;-89
2022/01/24 14:36:17;;;;;;;28.60;16.07;;;7.90;5.50;;;;;;5139795;27;20186;-85
2022/01/24 14:39:06;;;;;;;25.37;15.80;;;7.90;5.90;;;;;;5135909;27;20180;-86
2022/01/24 14:41:44;;;;;;;23.43;15.63;;;8.00;7.20;;;;;;5140713;27;20234;-86
2022/01/24 14:46:58;;;;;;;22.77;15.63;;;8.00;4.60;;;;;;5158244;27;20165;-85
2022/01/24 14:49:33;;;;;;;25.87;15.10;;;8.00;4.30;;;;;;5148611;27;20192;-89
2022/01/24 14:52:37;;;;;;;23.27;15.23;;;8.10;2.20;;;;;;5140359;28;20272;-88
2022/01/24 14:55:11;;;;;;;23.07;14.37;;;8.20;1.00;;;;;;5140648;28;20169;-91
2022/01/24 14:57:39;;;;;;;21.67;15.33;;;8.20;1.00;;;;;;5124173;28;20164;-90
2022/01/24 15:00:05;;;;;;;24.53;16.27;;;8.20;1.00;;;;;;5126637;28;20163;-86